Terminal Aerodrome Forecast
Issued by NWS

Home | Current Version | Previous Version | Graphics & Text | Print | Product List | Glossary On
Versions: 1 2 3 4 5 6 7 8 9 10 11 12 13 14 15 16 17 18 19 20 21 22 23 24 25 26
809
FTUS45 KGGW 161724
TAFOLF
TAF
KOLF 161724Z 1618/1718 11015KT P6SM FEW180 PROB30 1706/1709 4SM
      -SHRA OVC025
     FM170900 09010KT P6SM -SHRA OVC030
     FM171200 08005KT P6SM -SN OVC015
     FM171400 06005KT 6SM -SNRA OVC008=

USA.gov is the U.S. government's official web portal to all federal, state and local government web resources and services.